createdAt,value
2022-12-18T00:01:29.603Z,177.90
2022-12-18T00:03:57.173Z,207.77
2022-12-18T00:06:26.320Z,163.43
2022-12-18T00:08:55.746Z,173.68
2022-12-18T00:11:24.836Z,160.68
2022-12-18T00:13:52.056Z,165.57
2022-12-18T00:16:21.653Z,212.90
2022-12-18T00:18:49.343Z,210.67
2022-12-18T00:21:16.476Z,138.05
2022-12-18T00:23:44.817Z,146.40
2022-12-18T00:26:17.776Z,164.02
2022-12-18T00:28:45.448Z,153.38
2022-12-18T00:31:14.815Z,143.83
2022-12-18T00:33:42.290Z,142.40
2022-12-18T00:36:12.688Z,169.55
2022-12-18T00:38:39.715Z,147.30
2022-12-18T00:41:08.608Z,120.38
2022-12-18T00:43:35.610Z,115.83
2022-12-18T00:46:02.580Z,123.82
2022-12-18T00:48:29.586Z,109.35
2022-12-18T00:50:56.168Z,118.53
2022-12-18T00:53:22.835Z,100.35
2022-12-18T00:55:49.316Z,107.40
2022-12-18T00:58:17.458Z,103.57
2022-12-18T01:00:44.402Z,115.18
2022-12-18T01:03:14.355Z,124.22
2022-12-18T01:05:42.566Z,127.72
2022-12-18T01:08:09.020Z,103.63
2022-12-18T01:10:35.492Z,106.00
2022-12-18T01:13:02.030Z,107.47
2022-12-18T01:15:28.497Z,93.90
2022-12-18T01:17:54.973Z,86.63
2022-12-18T01:20:21.740Z,100.10
2022-12-18T01:22:48.339Z,94.57
2022-12-18T01:25:14.825Z,100.13
2022-12-18T01:27:41.294Z,95.65
2022-12-18T01:30:08.488Z,106.90
2022-12-18T01:32:35.007Z,88.77
2022-12-18T01:35:01.532Z,103.10
2022-12-18T01:37:28.044Z,91.00
2022-12-18T01:39:54.547Z,99.57
2022-12-18T01:42:21.921Z,92.40
2022-12-18T01:44:54.323Z,92.30
2022-12-18T01:47:56.396Z,92.82
2022-12-18T01:50:46.389Z,97.93
2022-12-18T01:53:20.065Z,70.95
2022-12-18T01:55:51.309Z,89.13
2022-12-18T01:58:18.948Z,92.77
2022-12-18T02:00:46.139Z,91.43
2022-12-18T02:03:13.139Z,76.38
2022-12-18T02:06:22.943Z,94.55
2022-12-18T02:08:54.286Z,90.05
2022-12-18T02:11:33.833Z,80.80
2022-12-18T02:14:29.205Z,83.95
2022-12-18T02:17:11.416Z,88.55
2022-12-18T02:20:02.496Z,83.97
2022-12-18T02:23:06.624Z,84.60
2022-12-18T02:25:56.319Z,87.73
2022-12-18T02:28:29.417Z,80.07
2022-12-18T02:31:02.067Z,84.00
2022-12-18T02:33:31.605Z,68.82
2022-12-18T02:36:00.472Z,75.15
2022-12-18T02:38:31.821Z,75.07
2022-12-18T02:40:59.641Z,72.88
2022-12-18T02:43:26.263Z,68.75
2022-12-18T02:45:58.872Z,71.20
2022-12-18T02:48:32.954Z,65.22
2022-12-18T02:51:13.781Z,66.80
2022-12-18T02:53:54.458Z,73.55
2022-12-18T02:56:27.367Z,66.05
2022-12-18T02:59:09.055Z,68.20
2022-12-18T03:01:44.128Z,68.03
2022-12-18T03:04:21.480Z,63.90
2022-12-18T03:06:54.320Z,64.13
2022-12-18T03:09:27.715Z,59.08
2022-12-18T03:12:01.166Z,55.15
2022-12-18T03:14:32.128Z,67.43
2022-12-18T03:17:08.640Z,62.43
2022-12-18T03:19:38.965Z,61.00
2022-12-18T03:22:08.639Z,62.10
2022-12-18T03:24:38.032Z,64.45
2022-12-18T03:27:11.192Z,74.65
2022-12-18T03:29:52.979Z,60.30
2022-12-18T03:32:29.937Z,66.43
2022-12-18T03:35:02.691Z,68.88
2022-12-18T03:37:29.301Z,62.33
2022-12-18T03:39:56.006Z,57.85
2022-12-18T03:42:46.971Z,63.50
2022-12-18T03:45:37.444Z,61.47
2022-12-18T03:48:29.945Z,57.60
2022-12-18T03:51:29.367Z,59.88
2022-12-18T03:54:04.156Z,59.45
2022-12-18T03:56:34.531Z,61.73
2022-12-18T03:59:03.780Z,64.10
2022-12-18T04:01:36.427Z,58.85
2022-12-18T04:04:05.387Z,62.67
2022-12-18T04:06:33.531Z,60.70
2022-12-18T04:09:00.495Z,65.03
2022-12-18T04:11:27.124Z,60.63
2022-12-18T04:13:57.802Z,59.55
2022-12-18T04:16:25.694Z,57.53
2022-12-18T04:18:52.311Z,56.05
2022-12-18T04:21:18.820Z,54.47
2022-12-18T04:23:45.273Z,58.78
2022-12-18T04:26:11.839Z,53.50
2022-12-18T04:28:38.346Z,51.78
2022-12-18T04:31:06.384Z,60.67
2022-12-18T04:33:33.381Z,50.90
2022-12-18T04:35:59.919Z,56.38
2022-12-18T04:38:26.542Z,54.50
2022-12-18T04:40:53.096Z,62.03
2022-12-18T04:43:19.758Z,55.80
2022-12-18T04:45:46.442Z,60.37
2022-12-18T04:48:13.109Z,52.40
2022-12-18T04:50:40.091Z,56.55
2022-12-18T04:53:07.715Z,51.97
2022-12-18T04:55:35.113Z,47.40
2022-12-18T04:58:01.776Z,42.87
2022-12-18T05:00:28.256Z,53.35
2022-12-18T05:02:54.882Z,48.08
2022-12-18T05:05:21.485Z,51.55
2022-12-18T05:07:47.971Z,49.60
2022-12-18T05:10:14.681Z,44.70
2022-12-18T05:12:41.221Z,49.08
2022-12-18T05:15:08.292Z,47.67
2022-12-18T05:17:34.927Z,51.90
2022-12-18T05:20:01.461Z,41.47
2022-12-18T05:22:27.994Z,48.57
2022-12-18T05:24:54.624Z,50.88
2022-12-18T05:27:21.168Z,49.08
2022-12-18T05:29:47.964Z,45.22
2022-12-18T05:32:14.493Z,46.97
2022-12-18T05:34:40.988Z,40.63
2022-12-18T05:37:07.462Z,53.58
2022-12-18T05:39:34.606Z,46.95
2022-12-18T05:42:01.079Z,46.55
2022-12-18T05:44:27.787Z,46.20
2022-12-18T05:46:55.147Z,44.97
2022-12-18T05:49:21.671Z,45.97
2022-12-18T05:51:48.201Z,39.53
2022-12-18T05:54:14.698Z,35.28
2022-12-18T05:56:47.005Z,40.17
2022-12-18T05:59:15.195Z,42.83
2022-12-18T06:01:41.831Z,40.03
2022-12-18T06:04:08.659Z,42.72
2022-12-18T06:06:37.969Z,43.20
2022-12-18T06:09:06.162Z,44.45
2022-12-18T06:11:33.223Z,44.80
2022-12-18T06:14:00.701Z,41.90
2022-12-18T06:16:28.825Z,40.55
2022-12-18T06:19:00.118Z,46.47
2022-12-18T06:21:28.107Z,43.00
2022-12-18T06:23:54.696Z,33.63
2022-12-18T06:26:27.660Z,41.22
2022-12-18T06:28:54.741Z,47.60
2022-12-18T06:31:21.250Z,43.97
2022-12-18T06:33:47.820Z,40.15
2022-12-18T06:36:15.027Z,45.37
2022-12-18T06:38:44.104Z,40.63
2022-12-18T06:41:13.291Z,42.25
2022-12-18T06:43:40.266Z,43.38
2022-12-18T06:46:07.813Z,37.50
2022-12-18T06:48:34.699Z,46.50
2022-12-18T06:51:01.621Z,36.28
2022-12-18T06:53:28.653Z,42.53
2022-12-18T06:56:13.106Z,38.42
2022-12-18T06:58:40.306Z,49.08
2022-12-18T07:01:09.320Z,42.27
2022-12-18T07:03:36.270Z,41.60
2022-12-18T07:06:03.656Z,37.08
2022-12-18T07:08:31.151Z,35.63
2022-12-18T07:10:57.857Z,46.30
2022-12-18T07:13:24.502Z,36.50
2022-12-18T07:15:50.959Z,47.83
2022-12-18T07:18:18.534Z,42.72
2022-12-18T07:20:45.399Z,37.38
2022-12-18T07:23:12.877Z,42.60
2022-12-18T07:25:41.640Z,33.40
2022-12-18T07:28:11.699Z,43.65
2022-12-18T07:30:42.386Z,39.30
2022-12-18T07:33:08.855Z,36.88
2022-12-18T07:35:35.453Z,40.55
2022-12-18T07:38:01.990Z,44.63
2022-12-18T07:40:28.725Z,24.35
2022-12-18T07:42:55.425Z,41.45
2022-12-18T07:45:21.915Z,42.08
2022-12-18T07:47:48.545Z,37.35
2022-12-18T07:50:15.103Z,36.40
2022-12-18T07:52:41.547Z,34.53
2022-12-18T07:55:10.939Z,41.25
2022-12-18T07:57:57.619Z,39.88
2022-12-18T08:00:24.045Z,42.97
2022-12-18T08:02:50.621Z,44.20
2022-12-18T08:05:17.424Z,52.78
2022-12-18T08:07:43.917Z,39.80
2022-12-18T08:10:10.698Z,45.20
2022-12-18T08:12:37.327Z,40.35
2022-12-18T08:15:04.229Z,43.93
2022-12-18T08:17:31.582Z,42.25
2022-12-18T08:19:58.152Z,41.95
2022-12-18T08:22:25.001Z,40.35
2022-12-18T08:24:51.556Z,40.22
2022-12-18T08:27:29.513Z,45.27
2022-12-18T08:29:57.035Z,41.75
2022-12-18T08:32:24.459Z,44.58
2022-12-18T08:34:51.355Z,43.33
2022-12-18T08:37:17.915Z,44.75
2022-12-18T08:39:44.490Z,43.27
2022-12-18T08:42:11.236Z,43.00
2022-12-18T08:44:38.144Z,40.60
2022-12-18T08:47:08.246Z,41.75
2022-12-18T08:49:35.946Z,38.22
2022-12-18T08:52:02.829Z,42.60
2022-12-18T08:54:29.831Z,40.50
2022-12-18T08:56:56.417Z,40.40
2022-12-18T08:59:22.882Z,48.08
2022-12-18T09:01:50.227Z,37.50
2022-12-18T09:04:17.100Z,43.00
2022-12-18T09:06:43.719Z,59.75
2022-12-18T09:09:10.990Z,52.72
2022-12-18T09:11:38.140Z,51.15
2022-12-18T09:14:04.962Z,51.25
2022-12-18T09:16:33.032Z,37.73
2022-12-18T09:19:00.692Z,37.13
2022-12-18T09:21:30.308Z,41.08
2022-12-18T09:23:57.311Z,40.75
2022-12-18T09:26:25.041Z,31.73
2022-12-18T09:28:51.640Z,34.77
2022-12-18T09:31:21.011Z,34.13
2022-12-18T09:33:47.678Z,39.25
2022-12-18T09:36:16.691Z,36.95
2022-12-18T09:38:43.688Z,35.33
2022-12-18T09:41:52.904Z,37.33
2022-12-18T09:44:29.707Z,32.22
2022-12-18T09:47:05.647Z,30.00
2022-12-18T09:49:40.561Z,37.65
2022-12-18T09:52:22.640Z,36.80
2022-12-18T09:55:01.265Z,31.47
2022-12-18T09:57:28.007Z,36.53
2022-12-18T10:00:00.020Z,34.17
2022-12-18T10:02:27.830Z,36.25
2022-12-18T10:05:05.493Z,29.95
2022-12-18T10:07:50.798Z,38.43
2022-12-18T10:10:23.129Z,34.50
2022-12-18T10:13:13.870Z,31.40
2022-12-18T10:16:01.393Z,35.10
2022-12-18T10:18:37.013Z,35.55
2022-12-18T10:21:30.724Z,39.93
2022-12-18T10:24:15.516Z,42.17
2022-12-18T10:26:42.787Z,33.10
2022-12-18T10:29:15.102Z,31.45
2022-12-18T10:31:42.082Z,61.97
2022-12-18T10:34:12.727Z,39.60
2022-12-18T10:36:39.641Z,31.10
2022-12-18T10:39:24.473Z,34.72
2022-12-18T10:41:51.114Z,31.98
2022-12-18T10:44:23.720Z,40.55
2022-12-18T10:46:55.056Z,41.27
2022-12-18T10:49:31.126Z,35.78
2022-12-18T10:52:23.940Z,37.58
2022-12-18T10:54:54.412Z,53.97
2022-12-18T10:57:34.631Z,58.00
2022-12-18T11:00:20.224Z,35.23
2022-12-18T11:02:47.051Z,31.63
2022-12-18T11:05:46.176Z,35.58
2022-12-18T11:08:22.114Z,35.30
2022-12-18T11:10:48.752Z,36.08
2022-12-18T11:13:24.283Z,36.13
2022-12-18T11:15:51.741Z,36.22
2022-12-18T11:18:23.333Z,34.30
2022-12-18T11:20:59.734Z,34.78
2022-12-18T11:23:28.167Z,34.95
2022-12-18T11:26:00.423Z,31.30
2022-12-18T11:28:43.311Z,39.17
2022-12-18T11:31:16.138Z,45.53
2022-12-18T11:34:19.650Z,39.55
2022-12-18T11:36:42.381Z,36.58
2022-12-18T11:39:21.243Z,36.67
2022-12-18T11:41:58.755Z,37.88
2022-12-18T11:44:39.357Z,39.53
2022-12-18T11:47:17.993Z,39.00
2022-12-18T11:49:44.681Z,48.17
2022-12-18T11:52:19.730Z,40.90
2022-12-18T11:54:46.327Z,36.35
2022-12-18T11:57:36.552Z,35.28
2022-12-18T12:00:03.016Z,33.83
2022-12-18T12:02:40.265Z,34.28
2022-12-18T12:05:46.428Z,36.20
2022-12-18T12:08:12.944Z,34.35
2022-12-18T12:10:45.538Z,40.03
2022-12-18T12:13:33.687Z,53.30
2022-12-18T12:16:15.216Z,43.25
2022-12-18T12:18:56.652Z,38.30
2022-12-18T12:21:33.601Z,37.75
2022-12-18T12:24:06.175Z,37.75
2022-12-18T12:26:47.997Z,32.90
2022-12-18T12:29:26.826Z,34.20
2022-12-18T12:32:29.603Z,40.20
2022-12-18T12:35:09.383Z,36.35
2022-12-18T12:37:53.500Z,35.80
2022-12-18T12:40:50.314Z,36.83
2022-12-18T12:43:28.025Z,34.67
2022-12-18T12:45:58.537Z,38.63
2022-12-18T12:48:34.419Z,40.58
2022-12-18T12:51:11.410Z,37.97
2022-12-18T12:53:40.419Z,38.60
2022-12-18T12:56:10.920Z,38.85
2022-12-18T12:58:56.750Z,39.77
2022-12-18T13:01:32.734Z,38.17
2022-12-18T13:04:43.893Z,37.92
2022-12-18T13:07:47.879Z,42.13
2022-12-18T13:10:17.816Z,39.95
2022-12-18T13:13:10.420Z,39.47
2022-12-18T13:15:46.263Z,43.20
2022-12-18T13:18:15.500Z,41.38
2022-12-18T13:21:03.786Z,38.33
2022-12-18T13:23:40.750Z,38.05
2022-12-18T13:26:07.647Z,39.57
2022-12-18T13:28:34.597Z,40.70
2022-12-18T13:31:02.748Z,37.50
2022-12-18T13:33:29.605Z,35.83
2022-12-18T13:36:14.738Z,36.72
2022-12-18T13:38:43.112Z,39.20
2022-12-18T13:41:26.259Z,44.17
2022-12-18T13:43:55.072Z,41.15
2022-12-18T13:46:24.514Z,38.63
2022-12-18T13:48:55.882Z,42.38
2022-12-18T13:51:23.947Z,41.30
2022-12-18T13:53:52.028Z,39.22
2022-12-18T13:56:22.738Z,40.42
2022-12-18T13:59:11.711Z,34.92
2022-12-18T14:01:54.132Z,37.90
2022-12-18T14:04:32.160Z,38.30
2022-12-18T14:07:06.742Z,40.58
2022-12-18T14:09:41.829Z,38.45
2022-12-18T14:12:17.980Z,41.88
2022-12-18T14:14:47.839Z,41.05
2022-12-18T14:17:16.975Z,42.13
2022-12-18T14:19:47.126Z,41.72
2022-12-18T14:22:26.583Z,43.20
2022-12-18T14:25:20.331Z,42.80
2022-12-18T14:28:06.957Z,41.15
2022-12-18T14:30:37.703Z,40.53
2022-12-18T14:33:14.852Z,36.88
2022-12-18T14:36:02.396Z,41.17
2022-12-18T14:38:42.005Z,39.83
2022-12-18T14:41:17.239Z,39.78
2022-12-18T14:43:46.641Z,38.07
2022-12-18T14:46:30.027Z,39.67
2022-12-18T14:48:58.093Z,41.30
2022-12-18T14:51:31.264Z,38.33
2022-12-18T14:54:00.896Z,39.60
2022-12-18T14:56:33.487Z,43.23
2022-12-18T14:59:02.570Z,42.00
2022-12-18T15:01:33.410Z,42.33
2022-12-18T15:04:03.077Z,45.08
2022-12-18T15:06:31.515Z,42.55
2022-12-18T15:08:59.856Z,43.63
2022-12-18T15:11:32.991Z,48.63
2022-12-18T15:13:59.594Z,44.40
2022-12-18T15:16:26.371Z,47.47
2022-12-18T15:18:54.266Z,49.42
2022-12-18T15:21:22.015Z,49.23
2022-12-18T15:23:51.713Z,57.67
2022-12-18T15:26:21.552Z,51.80
2022-12-18T15:28:56.321Z,61.88
2022-12-18T15:31:30.231Z,48.65
2022-12-18T15:33:56.824Z,48.40
2022-12-18T15:36:26.182Z,45.70
2022-12-18T15:38:55.167Z,46.88
2022-12-18T15:41:25.649Z,50.08
2022-12-18T15:43:53.775Z,48.97
2022-12-18T15:46:21.836Z,47.03
2022-12-18T15:49:01.698Z,45.53
2022-12-18T15:51:30.759Z,49.13
2022-12-18T15:53:59.679Z,49.40
2022-12-18T15:56:26.629Z,47.42
2022-12-18T15:58:53.161Z,47.57
2022-12-18T16:01:19.842Z,46.70
2022-12-18T16:03:46.644Z,45.95
2022-12-18T16:06:13.736Z,47.35
2022-12-18T16:08:40.361Z,43.17
2022-12-18T16:11:21.764Z,48.80
2022-12-18T16:13:48.449Z,51.05
2022-12-18T16:16:15.260Z,48.30
2022-12-18T16:18:42.084Z,49.90
2022-12-18T16:21:09.621Z,52.67
2022-12-18T16:23:36.237Z,48.30
2022-12-18T16:26:02.834Z,47.85
2022-12-18T16:28:29.365Z,47.70
2022-12-18T16:30:55.874Z,49.33
2022-12-18T16:33:22.435Z,47.35
2022-12-18T16:35:54.844Z,49.33
2022-12-18T16:38:21.385Z,46.15
2022-12-18T16:40:48.209Z,46.25
2022-12-18T16:43:16.526Z,46.72
2022-12-18T16:45:43.865Z,44.85
2022-12-18T16:48:10.400Z,46.07
2022-12-18T16:50:37.121Z,46.13
2022-12-18T16:53:03.826Z,48.67
2022-12-18T16:55:30.707Z,43.15
2022-12-18T16:57:57.761Z,45.08
2022-12-18T17:00:24.381Z,45.47
2022-12-18T17:02:51.320Z,45.65
2022-12-18T17:05:17.992Z,45.85
2022-12-18T17:07:44.596Z,46.08
2022-12-18T17:10:11.213Z,45.17
2022-12-18T17:12:37.700Z,45.10
2022-12-18T17:15:04.613Z,41.47
2022-12-18T17:17:31.153Z,49.10
2022-12-18T17:19:57.755Z,42.60
2022-12-18T17:22:24.260Z,41.55
2022-12-18T17:24:50.860Z,42.23
2022-12-18T17:27:17.408Z,43.80
2022-12-18T17:29:47.904Z,39.75
2022-12-18T17:32:15.978Z,46.90
2022-12-18T17:34:44.887Z,47.05
2022-12-18T17:37:11.416Z,40.33
2022-12-18T17:39:38.326Z,45.88
2022-12-18T17:42:05.226Z,44.55
2022-12-18T17:44:32.528Z,41.75
2022-12-18T17:46:59.189Z,45.28
2022-12-18T17:49:25.934Z,42.50
2022-12-18T17:51:52.549Z,39.13
2022-12-18T17:54:19.754Z,43.60
2022-12-18T17:56:46.357Z,41.95
2022-12-18T17:59:13.146Z,42.50
2022-12-18T18:01:44.397Z,41.03
2022-12-18T18:04:13.292Z,44.85
2022-12-18T18:06:40.127Z,44.22
2022-12-18T18:09:10.015Z,40.15
2022-12-18T18:11:45.914Z,41.03
2022-12-18T18:14:19.165Z,40.33
2022-12-18T18:16:48.202Z,46.45
2022-12-18T18:19:17.622Z,41.63
2022-12-18T18:21:47.715Z,39.55
2022-12-18T18:24:17.980Z,42.13
2022-12-18T18:26:45.021Z,46.87
2022-12-18T18:29:15.935Z,42.33
2022-12-18T18:31:43.058Z,46.17
2022-12-18T18:34:18.727Z,46.40
2022-12-18T18:36:45.406Z,45.33
2022-12-18T18:39:12.970Z,46.50
2022-12-18T18:41:39.548Z,47.72
2022-12-18T18:44:06.622Z,47.67
2022-12-18T18:46:33.449Z,43.40
2022-12-18T18:48:59.897Z,49.10
2022-12-18T18:51:31.445Z,48.27
2022-12-18T18:54:01.554Z,51.30
2022-12-18T18:56:56.183Z,46.95
2022-12-18T18:59:15.038Z,50.90
2022-12-18T19:01:41.664Z,50.10
2022-12-18T19:04:08.877Z,43.03
2022-12-18T19:06:35.517Z,52.92
2022-12-18T19:09:03.899Z,52.83
2022-12-18T19:11:35.927Z,50.60
2022-12-18T19:14:06.116Z,48.85
2022-12-18T19:16:33.496Z,53.67
2022-12-18T19:19:01.898Z,52.55
2022-12-18T19:21:29.358Z,51.13
2022-12-18T19:23:59.317Z,50.90
2022-12-18T19:26:28.214Z,53.15
2022-12-18T19:29:04.732Z,56.50
2022-12-18T19:31:35.653Z,51.70
2022-12-18T19:34:04.233Z,57.28
2022-12-18T19:36:35.092Z,54.95
2022-12-18T19:39:02.093Z,61.75
2022-12-18T19:41:32.964Z,55.27
2022-12-18T19:44:02.252Z,53.00
2022-12-18T19:46:35.574Z,56.63
2022-12-18T19:49:02.711Z,54.50
2022-12-18T19:51:31.364Z,60.00
2022-12-18T19:54:01.214Z,59.07
2022-12-18T19:56:31.572Z,58.67
2022-12-18T19:58:58.489Z,61.17
2022-12-18T20:01:26.298Z,56.58
2022-12-18T20:03:54.462Z,64.22
2022-12-18T20:06:46.706Z,59.70
2022-12-18T20:09:13.491Z,60.70
2022-12-18T20:11:41.952Z,67.28
2022-12-18T20:14:10.106Z,63.35
2022-12-18T20:16:36.729Z,72.32
2022-12-18T20:19:03.768Z,63.30
2022-12-18T20:21:30.469Z,66.97
2022-12-18T20:23:57.017Z,72.30
2022-12-18T20:26:23.913Z,68.50
2022-12-18T20:28:50.468Z,71.65
2022-12-18T20:31:17.242Z,66.97
2022-12-18T20:33:47.632Z,71.20
2022-12-18T20:36:21.134Z,66.75
2022-12-18T20:38:49.964Z,72.13
2022-12-18T20:41:19.174Z,75.25
2022-12-18T20:43:46.200Z,72.83
2022-12-18T20:46:14.961Z,82.20
2022-12-18T20:48:42.349Z,87.72
2022-12-18T20:51:17.387Z,79.13
2022-12-18T20:53:45.611Z,74.95
2022-12-18T20:56:20.850Z,79.83
2022-12-18T20:58:55.138Z,77.72
2022-12-18T21:01:23.082Z,86.03
2022-12-18T21:03:50.723Z,82.18
2022-12-18T21:06:20.183Z,74.38
2022-12-18T21:08:47.302Z,81.40
2022-12-18T21:11:19.976Z,80.22
2022-12-18T21:13:46.506Z,80.25
2022-12-18T21:16:13.067Z,80.50
2022-12-18T21:18:39.594Z,84.68
2022-12-18T21:21:06.173Z,81.77
2022-12-18T21:23:32.800Z,82.00
2022-12-18T21:26:24.461Z,88.53
2022-12-18T21:28:55.835Z,78.65
2022-12-18T21:31:25.291Z,79.07
2022-12-18T21:33:54.659Z,75.97
2022-12-18T21:36:28.157Z,80.70
2022-12-18T21:38:55.639Z,79.30
2022-12-18T21:41:23.329Z,73.07
2022-12-18T21:43:50.237Z,75.45
2022-12-18T21:46:16.786Z,78.63
2022-12-18T21:48:43.461Z,73.60
2022-12-18T21:51:10.379Z,77.85
2022-12-18T21:53:37.032Z,74.32
2022-12-18T21:56:03.682Z,75.72
2022-12-18T21:58:30.586Z,74.80
2022-12-18T22:00:57.115Z,73.70
2022-12-18T22:03:24.253Z,69.15
2022-12-18T22:05:53.975Z,67.68
2022-12-18T22:08:35.765Z,76.80
2022-12-18T22:11:06.395Z,84.00
2022-12-18T22:13:32.986Z,76.88
2022-12-18T22:15:59.477Z,72.90
2022-12-18T22:18:25.992Z,73.95
2022-12-18T22:21:04.997Z,72.32
2022-12-18T22:23:32.005Z,65.23
2022-12-18T22:25:58.530Z,65.15
2022-12-18T22:28:25.098Z,69.88
2022-12-18T22:30:52.699Z,68.43
2022-12-18T22:33:26.001Z,69.10
2022-12-18T22:35:52.484Z,71.83
2022-12-18T22:38:18.979Z,66.43
2022-12-18T22:40:45.749Z,72.60
2022-12-18T22:43:12.500Z,70.32
2022-12-18T22:45:38.986Z,66.60
2022-12-18T22:48:05.947Z,66.90
2022-12-18T22:50:35.332Z,65.55
2022-12-18T22:53:01.863Z,64.90
2022-12-18T22:55:28.350Z,65.20
2022-12-18T22:57:54.898Z,63.55
2022-12-18T23:00:24.588Z,65.27
2022-12-18T23:02:59.473Z,77.18
2022-12-18T23:05:27.651Z,75.78
2022-12-18T23:07:54.177Z,74.78
2022-12-18T23:10:20.623Z,72.70
2022-12-18T23:12:47.270Z,84.77
2022-12-18T23:15:13.996Z,76.85
2022-12-18T23:17:42.685Z,79.50
2022-12-18T23:20:09.764Z,78.70
2022-12-18T23:22:36.394Z,73.43
2022-12-18T23:25:02.981Z,82.70
2022-12-18T23:27:29.544Z,76.75
2022-12-18T23:29:56.014Z,74.25
2022-12-18T23:32:25.062Z,76.03
2022-12-18T23:34:51.544Z,81.35
2022-12-18T23:37:35.302Z,81.20
2022-12-18T23:40:05.154Z,88.22
2022-12-18T23:42:31.705Z,85.30
2022-12-18T23:44:58.259Z,87.55
2022-12-18T23:47:26.245Z,90.10
2022-12-18T23:49:52.851Z,83.13
2022-12-18T23:52:19.437Z,91.70
2022-12-18T23:54:46.103Z,84.82
2022-12-18T23:57:12.678Z,89.55
2022-12-18T23:59:39.165Z,90.05
